Dora, Alabama
Current Conditions -  °F | °C
As of 4:35 AM on Monday 26 Jan 2015 (Local Time) from KJFX Reporting Station
Overcast Overcast  
Wind Chill: 40°   Ceiling: 1400
Heat Index: 45°   Visibility: 10mi
Dew Point: 39°   Wind: 9mph
Humidity: 81%   Direction: 300°WNW
Pressure: 29.91"   Gusts: NA
Location:  33.73°N, 87.09°W
Report Text: KJFX 261035Z AUTO 30008KT 10SM OVC014 07/04 A2991 RMK A02 P-128
Loading
Personal Weather Stations






























Interactive Weather Map New forecast layout! Learn more

10-Day Weather Forecast

Advertisements
Track Severe Weather on mobile